Time;durP1;ratioP1;P1;durP2;ratioP2;P2;SDS_P1;SDS_P2;PMS_P1;PMS_P2;Temp;Humidity;BMP_temperature;BMP_pressure;BME280_temperature;BME280_humidity;BME280_pressure;Samples;Min_cycle;Max_cycle;Signal;HPM_P1;HPM_P2
2023/07/13 00:00:37;;;;;;;7.18;6.97;;;22.40;99.90;;;;;;5012381;28;20589;-57
2023/07/13 00:03:04;;;;;;;7.20;6.95;;;22.40;99.90;;;;;;5012763;28;20236;-57
2023/07/13 00:05:31;;;;;;;7.05;6.75;;;22.40;99.90;;;;;;5012932;28;20202;-57
2023/07/13 00:07:58;;;;;;;6.93;6.72;;;22.40;99.90;;;;;;5016539;28;20229;-56
2023/07/13 00:10:26;;;;;;;7.63;7.32;;;22.40;99.90;;;;;;5012707;28;20637;-56
2023/07/13 00:12:54;;;;;;;8.52;8.13;;;22.40;99.90;;;;;;5013589;28;20228;-57
2023/07/13 00:15:23;;;;;;;8.02;7.63;;;22.40;99.90;;;;;;5017326;28;20210;-57
2023/07/13 00:17:50;;;;;;;7.28;7.07;;;22.60;99.90;;;;;;5013356;28;20229;-56
2023/07/13 00:20:17;;;;;;;8.13;7.82;;;22.70;99.90;;;;;;5041103;22;20227;-57
2023/07/13 00:22:44;;;;;;;6.95;6.68;;;22.50;99.90;;;;;;5019835;28;20197;-57
2023/07/13 00:25:12;;;;;;;6.93;6.72;;;22.30;99.90;;;;;;5011836;28;20200;-57
2023/07/13 00:27:39;;;;;;;7.57;7.28;;;22.40;99.90;;;;;;5012147;28;20229;-57
2023/07/13 00:30:08;;;;;;;7.05;6.85;;;22.40;99.90;;;;;;5010896;28;20205;-57
2023/07/13 00:32:36;;;;;;;7.60;7.30;;;22.40;99.90;;;;;;5011702;28;20205;-57
2023/07/13 00:35:04;;;;;;;7.35;7.15;;;22.60;99.90;;;;;;5012220;28;20205;-57
2023/07/13 00:37:31;;;;;;;7.85;7.55;;;22.70;99.90;;;;;;5011434;28;20255;-57
2023/07/13 00:39:58;;;;;;;7.30;7.07;;;22.70;99.90;;;;;;5010198;28;20213;-57
2023/07/13 00:42:25;;;;;;;6.57;6.38;;;22.70;99.90;;;;;;5011790;28;20778;-58
2023/07/13 00:45:48;;;;;;;7.15;6.95;;;22.40;99.90;;;;;;5011215;28;20205;-57
2023/07/13 00:48:19;;;;;;;7.50;7.30;;;22.10;99.90;;;;;;5010948;28;20233;-57
2023/07/13 00:50:49;;;;;;;6.85;6.65;;;21.90;99.90;;;;;;5010104;28;20280;-56
2023/07/13 00:53:16;;;;;;;7.03;6.80;;;21.80;99.90;;;;;;5010841;28;20236;-56
2023/07/13 00:55:43;;;;;;;7.50;7.30;;;21.80;99.90;;;;;;5009772;28;20270;-56
2023/07/13 00:58:10;;;;;;;6.78;6.57;;;21.90;99.90;;;;;;5011732;28;20205;-57
2023/07/13 01:00:40;;;;;;;7.82;7.55;;;21.60;99.90;;;;;;5010929;28;20250;-57
2023/07/13 01:03:08;;;;;;;6.97;6.77;;;21.50;99.90;;;;;;5011817;28;20207;-56
2023/07/13 01:05:36;;;;;;;6.22;6.03;;;21.40;99.90;;;;;;5012070;28;20618;-57
2023/07/13 01:08:05;;;;;;;6.93;6.72;;;21.40;99.90;;;;;;5010917;28;20233;-57
2023/07/13 01:10:38;;;;;;;6.35;6.15;;;21.30;99.90;;;;;;5010785;28;20229;-57
2023/07/13 01:13:06;;;;;;;6.43;6.22;;;21.30;99.90;;;;;;5007889;28;20205;-56
2023/07/13 01:15:40;;;;;;;6.68;6.47;;;21.30;99.90;;;;;;5010213;28;20205;-56
2023/07/13 01:18:10;;;;;;;6.78;6.57;;;21.40;99.90;;;;;;4988695;28;20300;-56
2023/07/13 01:20:38;;;;;;;7.15;6.90;;;21.50;99.90;;;;;;4989720;28;20699;-56
2023/07/13 01:23:09;;;;;;;7.10;6.80;;;21.40;99.90;;;;;;4990888;28;20213;-56
2023/07/13 01:25:36;;;;;;;6.93;6.72;;;21.50;99.90;;;;;;4990883;28;20205;-56
2023/07/13 01:28:03;;;;;;;6.80;6.60;;;21.50;99.90;;;;;;4990956;28;20241;-57
2023/07/13 01:30:31;;;;;;;6.43;6.22;;;21.50;99.90;;;;;;4990066;28;20234;-56
2023/07/13 01:32:57;;;;;;;6.70;6.40;;;21.30;99.90;;;;;;4990279;28;20296;-57
2023/07/13 01:35:25;;;;;;;7.50;7.20;;;21.30;99.90;;;;;;4991089;28;20580;-57
2023/07/13 01:37:52;;;;;;;6.85;6.65;;;21.30;99.90;;;;;;4990786;28;20624;-56
2023/07/13 01:40:20;;;;;;;6.90;6.70;;;21.30;99.90;;;;;;4990037;28;20222;-56
2023/07/13 01:42:47;;;;;;;6.60;6.40;;;21.30;99.90;;;;;;4990952;28;20209;-57
2023/07/13 01:45:14;;;;;;;7.20;7.00;;;21.30;99.90;;;;;;4991746;28;20223;-57
2023/07/13 01:47:41;;;;;;;6.63;6.43;;;21.40;99.90;;;;;;4989398;28;20240;-57
2023/07/13 01:50:08;;;;;;;6.28;6.07;;;21.60;99.90;;;;;;4989854;28;20238;-57
2023/07/13 01:52:35;;;;;;;6.20;6.00;;;21.60;99.90;;;;;;4989994;28;20212;-56
2023/07/13 01:55:02;;;;;;;6.32;6.13;;;21.70;99.90;;;;;;4990275;28;20212;-57
2023/07/13 01:57:30;;;;;;;7.43;7.13;;;21.70;99.90;;;;;;4990813;28;20206;-57
2023/07/13 01:59:57;;;;;;;7.05;6.75;;;21.50;99.90;;;;;;4989379;28;20201;-57
2023/07/13 02:02:24;;;;;;;6.32;6.13;;;21.10;99.90;;;;;;4991425;28;20210;-57
2023/07/13 02:04:51;;;;;;;6.78;6.57;;;21.00;99.90;;;;;;4991599;28;20220;-57
2023/07/13 02:07:17;;;;;;;6.70;6.40;;;20.80;99.90;;;;;;4991597;28;20296;-58
2023/07/13 02:09:44;;;;;;;5.75;5.55;;;20.90;99.90;;;;;;4990341;28;20222;-56
2023/07/13 02:12:11;;;;;;;6.10;5.90;;;20.70;99.90;;;;;;4991747;28;20229;-57
2023/07/13 02:14:39;;;;;;;5.82;5.63;;;20.60;99.90;;;;;;4994294;28;20248;-57
2023/07/13 02:17:06;;;;;;;5.88;5.68;;;20.80;99.90;;;;;;4998924;28;20210;-57
2023/07/13 02:19:33;;;;;;;6.35;6.15;;;20.90;99.90;;;;;;5004183;28;20280;-56
2023/07/13 02:22:00;;;;;;;6.18;5.97;;;21.00;99.90;;;;;;5014177;28;20237;-57
2023/07/13 02:24:27;;;;;;;6.00;5.80;;;21.00;99.90;;;;;;5015282;28;20211;-56
2023/07/13 02:26:54;;;;;;;6.23;6.03;;;20.80;99.90;;;;;;5014988;28;20590;-56
2023/07/13 02:29:21;;;;;;;6.20;6.00;;;20.60;99.90;;;;;;5014052;28;20852;-57
2023/07/13 02:31:49;;;;;;;6.07;5.88;;;20.60;99.90;;;;;;5015049;28;20235;-57
2023/07/13 02:34:16;;;;;;;5.93;5.72;;;20.40;99.90;;;;;;5014740;28;20213;-57
2023/07/13 02:36:43;;;;;;;6.15;5.95;;;20.40;99.90;;;;;;5014681;28;20300;-57
2023/07/13 02:39:12;;;;;;;6.30;6.10;;;20.50;99.90;;;;;;5013918;28;20209;-57
2023/07/13 02:41:39;;;;;;;5.90;5.70;;;20.70;99.90;;;;;;5014645;28;20225;-57
2023/07/13 02:44:07;;;;;;;5.97;5.78;;;20.80;99.90;;;;;;5015392;28;20300;-58
2023/07/13 02:46:36;;;;;;;6.18;5.88;;;20.80;99.90;;;;;;5014680;28;20202;-56
2023/07/13 02:49:04;;;;;;;5.95;5.75;;;20.90;99.90;;;;;;5014097;28;20652;-57
2023/07/13 02:51:33;;;;;;;5.97;5.68;;;20.90;99.90;;;;;;5014204;28;20232;-57
2023/07/13 02:54:00;;;;;;;6.50;6.25;;;20.70;99.90;;;;;;5014379;28;20214;-56
2023/07/13 02:56:29;;;;;;;6.03;5.82;;;20.50;99.90;;;;;;5014006;28;20205;-56
2023/07/13 02:58:55;;;;;;;6.30;6.10;;;20.50;99.90;;;;;;5014609;28;20210;-56
2023/07/13 03:01:22;;;;;;;6.15;5.95;;;20.50;99.90;;;;;;5018760;28;20220;-58
2023/07/13 03:03:50;;;;;;;6.20;6.00;;;20.30;99.90;;;;;;5033944;28;20674;-58
2023/07/13 03:06:19;;;;;;;6.32;6.13;;;20.30;99.90;;;;;;5033719;28;20227;-57
2023/07/13 03:08:47;;;;;;;6.30;6.10;;;20.30;99.90;;;;;;5033682;28;20235;-57
2023/07/13 03:11:17;;;;;;;6.45;6.25;;;20.20;99.90;;;;;;5033600;28;20611;-57
2023/07/13 03:13:44;;;;;;;6.30;6.10;;;20.30;99.90;;;;;;5034646;28;20566;-58
2023/07/13 03:16:11;;;;;;;6.07;5.88;;;20.30;99.90;;;;;;5034779;28;20320;-58
2023/07/13 03:18:39;;;;;;;6.00;5.80;;;20.40;99.90;;;;;;5034589;28;20196;-57
2023/07/13 03:21:06;;;;;;;6.40;6.20;;;20.60;99.90;;;;;;5033330;28;20263;-57
2023/07/13 03:23:34;;;;;;;6.30;6.10;;;20.80;99.90;;;;;;5034239;28;20802;-57
2023/07/13 03:26:06;;;;;;;6.03;5.82;;;20.80;99.90;;;;;;5034541;28;20211;-56
2023/07/13 03:28:34;;;;;;;6.03;5.82;;;20.70;99.90;;;;;;5034241;28;20229;-57
2023/07/13 03:31:02;;;;;;;6.20;6.00;;;20.40;99.90;;;;;;5033043;28;20347;-56
2023/07/13 03:33:29;;;;;;;5.82;5.63;;;20.40;99.90;;;;;;5033379;28;20207;-57
2023/07/13 03:35:56;;;;;;;6.13;5.90;;;20.30;99.90;;;;;;5036689;28;20205;-57
2023/07/13 03:38:23;;;;;;;6.00;5.80;;;20.30;99.90;;;;;;5043437;28;20640;-56
2023/07/13 03:40:51;;;;;;;6.32;6.13;;;20.20;99.90;;;;;;5042430;28;20255;-57
2023/07/13 03:43:18;;;;;;;6.43;6.22;;;20.10;99.90;;;;;;5042315;28;20268;-57
2023/07/13 03:45:45;;;;;;;6.43;6.22;;;20.00;99.90;;;;;;5041748;28;20322;-57
2023/07/13 03:48:12;;;;;;;6.70;6.50;;;19.90;99.90;;;;;;5017882;28;20255;-57
2023/07/13 03:50:38;;;;;;;6.70;6.50;;;20.00;99.90;;;;;;5014504;28;20233;-56
2023/07/13 03:53:05;;;;;;;6.20;6.00;;;20.10;99.90;;;;;;5014967;28;20565;-57
2023/07/13 03:55:32;;;;;;;6.53;6.30;;;20.20;99.90;;;;;;5014752;28;20201;-58
2023/07/13 03:58:22;;;;;;;6.10;5.90;;;20.10;99.90;;;;;;5017932;28;20229;-56
2023/07/13 04:00:50;;;;;;;7.07;6.78;;;19.90;99.90;;;;;;5017882;28;20229;-56
2023/07/13 04:03:17;;;;;;;6.38;6.18;;;19.90;99.90;;;;;;5019855;28;20205;-57
2023/07/13 04:05:44;;;;;;;6.47;6.28;;;20.00;99.90;;;;;;5016172;28;20213;-57
2023/07/13 04:08:11;;;;;;;6.47;6.28;;;20.20;99.90;;;;;;5015819;28;20255;-57
2023/07/13 04:10:38;;;;;;;6.25;6.05;;;20.40;99.90;;;;;;5013130;28;20256;-57
2023/07/13 04:13:06;;;;;;;6.50;6.20;;;20.50;99.90;;;;;;5016994;28;20267;-55
2023/07/13 04:15:34;;;;;;;6.65;6.45;;;20.30;99.90;;;;;;5018624;28;20316;-59
2023/07/13 04:18:03;;;;;;;6.00;5.70;;;20.30;99.90;;;;;;5016415;28;20205;-58
2023/07/13 04:20:30;;;;;;;6.95;6.65;;;20.30;99.90;;;;;;5013968;28;20235;-56
2023/07/13 04:22:58;;;;;;;6.15;5.95;;;20.10;99.90;;;;;;5015143;28;20275;-58
2023/07/13 04:25:25;;;;;;;6.57;6.38;;;20.40;99.90;;;;;;5015542;28;20224;-57
2023/07/13 04:27:52;;;;;;;6.47;6.28;;;20.50;99.90;;;;;;5020043;28;20292;-57
2023/07/13 04:30:21;;;;;;;6.57;6.28;;;20.50;99.90;;;;;;5013262;28;20241;-56
2023/07/13 04:32:48;;;;;;;6.45;6.15;;;20.20;99.90;;;;;;5017169;28;20292;-56
2023/07/13 04:35:15;;;;;;;6.10;5.90;;;20.20;99.90;;;;;;5015540;28;20206;-56
2023/07/13 04:37:42;;;;;;;6.43;6.22;;;20.20;99.90;;;;;;5010028;28;20224;-56
2023/07/13 04:40:11;;;;;;;6.35;6.10;;;20.10;99.90;;;;;;5011116;28;20316;-56
2023/07/13 04:42:38;;;;;;;7.55;7.25;;;20.00;99.90;;;;;;5009485;28;20259;-58
2023/07/13 04:45:06;;;;;;;6.32;6.13;;;20.10;99.90;;;;;;5010615;28;20208;-57
2023/07/13 04:47:35;;;;;;;6.28;6.07;;;20.20;99.90;;;;;;5010506;28;20206;-57
2023/07/13 04:50:02;;;;;;;6.15;5.85;;;20.50;99.90;;;;;;5009268;28;21167;-57
2023/07/13 04:52:29;;;;;;;5.88;5.68;;;20.70;99.90;;;;;;5010702;28;20225;-57
2023/07/13 04:54:56;;;;;;;6.25;6.05;;;20.90;99.90;;;;;;5010357;28;20359;-57
2023/07/13 04:57:23;;;;;;;6.25;6.03;;;21.00;99.90;;;;;;5011326;28;20209;-57
2023/07/13 04:59:49;;;;;;;6.43;6.13;;;21.10;99.90;;;;;;5012598;28;20360;-55
2023/07/13 05:02:16;;;;;;;6.57;6.28;;;21.20;99.90;;;;;;5000424;28;20684;-57
2023/07/13 05:04:47;;;;;;;6.20;5.90;;;21.30;99.90;;;;;;5003054;28;20197;-57
2023/07/13 05:07:14;;;;;;;6.60;6.35;;;21.40;99.90;;;;;;5009618;28;20530;-57
2023/07/13 05:09:41;;;;;;;6.60;6.40;;;21.30;99.90;;;;;;5011764;28;20231;-58
2023/07/13 05:12:09;;;;;;;6.57;6.38;;;21.40;99.90;;;;;;5020572;28;20324;-57
2023/07/13 05:14:36;;;;;;;7.68;7.38;;;21.50;99.90;;;;;;5021248;28;20215;-57
2023/07/13 05:17:03;;;;;;;6.68;6.47;;;21.50;99.90;;;;;;5025279;28;20285;-57
2023/07/13 05:19:30;;;;;;;6.78;6.57;;;21.50;99.90;;;;;;5029271;28;20205;-57
2023/07/13 05:21:59;;;;;;;6.63;6.43;;;21.70;99.90;;;;;;5018307;28;20238;-57
2023/07/13 05:24:26;;;;;;;7.40;7.10;;;21.90;99.90;;;;;;4998482;28;20578;-56
2023/07/13 05:26:54;;;;;;;6.75;6.55;;;22.10;99.90;;;;;;4997086;28;20209;-58
2023/07/13 05:29:21;;;;;;;7.35;7.13;;;22.20;99.90;;;;;;4991428;28;20303;-57
2023/07/13 05:31:48;;;;;;;7.22;7.03;;;22.20;99.90;;;;;;5001687;28;20227;-57
2023/07/13 05:34:14;;;;;;;7.10;6.80;;;22.20;99.90;;;;;;5000763;28;20198;-57
2023/07/13 05:36:41;;;;;;;7.07;6.88;;;21.90;99.90;;;;;;5003906;28;20205;-56
2023/07/13 05:39:11;;;;;;;7.87;7.57;;;21.60;99.90;;;;;;5005172;28;20213;-58
2023/07/13 05:41:38;;;;;;;7.82;7.53;;;21.80;99.90;;;;;;5004571;28;20218;-58
2023/07/13 05:44:05;;;;;;;7.20;7.00;;;21.80;99.90;;;;;;5013151;28;20579;-56
2023/07/13 05:46:32;;;;;;;7.10;6.80;;;21.90;99.90;;;;;;5007522;28;20212;-58
2023/07/13 05:48:59;;;;;;;7.20;6.90;;;22.10;99.90;;;;;;5009729;28;20247;-58
2023/07/13 05:51:25;;;;;;;7.03;6.82;;;22.20;99.90;;;;;;5006654;28;20222;-57
2023/07/13 05:53:52;;;;;;;6.70;6.50;;;22.30;99.90;;;;;;5011181;28;20213;-58
2023/07/13 05:56:20;;;;;;;7.25;7.05;;;22.30;99.90;;;;;;5013773;28;20461;-57
2023/07/13 05:58:49;;;;;;;7.15;6.90;;;22.40;99.90;;;;;;5012511;28;20208;-58
2023/07/13 06:01:17;;;;;;;7.38;7.07;;;22.30;99.90;;;;;;5007585;28;20221;-57
2023/07/13 06:03:44;;;;;;;8.15;7.75;;;22.20;99.90;;;;;;5008055;28;20304;-56
2023/07/13 06:06:11;;;;;;;7.43;7.22;;;22.30;99.90;;;;;;5010215;28;20205;-58
2023/07/13 06:08:38;;;;;;;7.80;7.50;;;22.50;99.90;;;;;;5010410;28;20205;-57
2023/07/13 06:11:06;;;;;;;8.05;7.75;;;22.70;99.90;;;;;;5008682;28;20228;-66
2023/07/13 06:13:34;;;;;;;7.68;7.38;;;22.60;99.90;;;;;;5011030;28;20670;-66
2023/07/13 06:16:04;;;;;;;7.78;7.47;;;22.40;99.90;;;;;;5010746;28;20240;-66
2023/07/13 06:18:31;;;;;;;7.40;7.10;;;22.30;99.90;;;;;;5011527;28;20209;-66
2023/07/13 06:20:58;;;;;;;7.18;6.97;;;22.40;99.90;;;;;;5027534;22;20225;-65
2023/07/13 06:23:25;;;;;;;7.30;7.10;;;22.40;99.90;;;;;;5029668;28;20204;-64
2023/07/13 06:25:52;;;;;;;7.32;7.13;;;22.50;99.90;;;;;;5030954;28;20204;-64
2023/07/13 06:28:19;;;;;;;7.13;6.87;;;22.60;99.90;;;;;;5030991;28;20886;-65
2023/07/13 06:30:47;;;;;;;7.15;6.85;;;22.60;99.90;;;;;;5030964;28;20690;-65
2023/07/13 06:33:14;;;;;;;6.75;6.55;;;22.70;99.90;;;;;;5031727;28;20243;-66
2023/07/13 06:35:41;;;;;;;7.05;6.85;;;22.70;99.90;;;;;;5033235;28;20209;-69
2023/07/13 06:38:08;;;;;;;6.95;6.75;;;22.80;99.90;;;;;;5032292;28;20667;-64
2023/07/13 06:40:35;;;;;;;7.35;7.10;;;23.00;99.90;;;;;;5031572;28;20304;-64
2023/07/13 06:43:01;;;;;;;7.22;6.93;;;23.10;99.90;;;;;;5032778;28;20201;-67
2023/07/13 06:45:28;;;;;;;7.07;6.78;;;23.10;99.90;;;;;;5033800;28;20216;-66
2023/07/13 06:47:57;;;;;;;7.13;6.83;;;23.20;99.90;;;;;;5032221;28;20210;-66
2023/07/13 06:50:23;;;;;;;7.22;6.93;;;23.30;99.90;;;;;;5030446;28;20229;-66
2023/07/13 06:52:50;;;;;;;7.03;6.72;;;23.20;99.90;;;;;;5030867;28;20215;-65
2023/07/13 06:55:17;;;;;;;7.30;7.00;;;23.30;99.90;;;;;;5031115;28;20204;-66
2023/07/13 06:57:44;;;;;;;6.97;6.78;;;23.20;99.90;;;;;;5030688;28;20212;-68
2023/07/13 07:00:12;;;;;;;7.05;6.85;;;23.20;99.90;;;;;;5029981;28;20205;-65
2023/07/13 07:02:39;;;;;;;7.22;6.82;;;23.20;99.90;;;;;;5030755;28;20210;-65
2023/07/13 07:05:08;;;;;;;8.50;8.20;;;23.20;99.90;;;;;;5031569;28;20201;-67
2023/07/13 07:07:34;;;;;;;6.97;6.78;;;23.30;99.90;;;;;;5033342;28;20208;-69
2023/07/13 07:10:01;;;;;;;7.05;6.80;;;23.10;99.90;;;;;;5032843;28;20250;-67
2023/07/13 07:12:28;;;;;;;7.00;6.75;;;23.10;99.90;;;;;;5034696;28;20238;-67
2023/07/13 07:14:55;;;;;;;7.07;6.78;;;23.10;99.90;;;;;;5035488;28;20710;-66
2023/07/13 07:17:22;;;;;;;6.97;6.78;;;23.20;99.90;;;;;;5034215;28;20215;-65
2023/07/13 07:19:49;;;;;;;6.78;6.57;;;23.20;99.90;;;;;;5033962;28;20207;-66
2023/07/13 07:22:17;;;;;;;7.53;7.18;;;23.30;99.90;;;;;;5035971;28;20243;-69
2023/07/13 07:24:44;;;;;;;7.03;6.72;;;23.30;99.90;;;;;;5040250;28;20565;-66
2023/07/13 07:27:10;;;;;;;7.00;6.80;;;23.40;99.90;;;;;;5039308;28;20205;-69
2023/07/13 07:29:37;;;;;;;6.88;6.68;;;23.50;99.90;;;;;;5033603;28;20214;-67
2023/07/13 07:32:05;;;;;;;7.70;7.40;;;23.70;99.90;;;;;;5032775;28;20227;-66
2023/07/13 07:34:32;;;;;;;7.25;6.95;;;24.00;99.90;;;;;;5033256;28;20235;-65
2023/07/13 07:37:01;;;;;;;8.93;8.63;;;23.90;99.90;;;;;;5033902;28;20205;-67
2023/07/13 07:39:30;;;;;;;7.35;6.97;;;23.80;99.90;;;;;;5032855;28;20208;-65
2023/07/13 07:41:57;;;;;;;7.10;6.88;;;23.80;99.90;;;;;;5033380;28;20503;-65
2023/07/13 07:44:24;;;;;;;8.27;7.88;;;23.90;99.90;;;;;;5033603;28;20208;-65
2023/07/13 07:46:50;;;;;;;7.30;7.00;;;23.80;99.90;;;;;;5033897;28;20523;-65
2023/07/13 07:49:17;;;;;;;7.57;7.18;;;23.80;99.90;;;;;;5032819;28;20211;-67
2023/07/13 07:51:44;;;;;;;7.78;7.47;;;23.80;99.90;;;;;;5035578;28;20229;-67
2023/07/13 07:54:11;;;;;;;7.00;6.80;;;23.90;99.90;;;;;;5035307;28;20224;-68
2023/07/13 07:56:39;;;;;;;7.20;7.00;;;24.00;99.90;;;;;;5032230;28;20218;-66
2023/07/13 07:59:06;;;;;;;7.70;7.05;;;24.10;99.90;;;;;;5031835;28;20795;-67
2023/07/13 08:01:33;;;;;;;7.60;7.30;;;24.20;99.90;;;;;;5032537;28;20230;-65
2023/07/13 08:03:59;;;;;;;7.63;7.32;;;24.40;99.90;;;;;;5032406;28;20211;-71
2023/07/13 08:06:26;;;;;;;8.13;7.82;;;24.70;99.90;;;;;;5031568;28;20201;-66
2023/07/13 08:08:53;;;;;;;8.27;7.97;;;24.70;99.90;;;;;;5032120;28;20212;-67
2023/07/13 08:11:22;;;;;;;7.15;6.95;;;24.70;99.90;;;;;;5031175;28;20242;-66
2023/07/13 08:13:51;;;;;;;8.32;8.02;;;24.80;99.90;;;;;;5031869;28;20203;-66
2023/07/13 08:16:17;;;;;;;8.73;8.43;;;25.00;99.90;;;;;;5031468;28;20212;-66
2023/07/13 08:18:44;;;;;;;8.43;8.13;;;25.00;99.90;;;;;;5031465;28;20211;-64
2023/07/13 08:21:11;;;;;;;11.93;11.43;;;24.90;99.90;;;;;;5030180;28;20718;-66
2023/07/13 08:23:38;;;;;;;46.33;43.45;;;25.00;99.90;;;;;;5030427;28;20207;-65
2023/07/13 08:26:05;;;;;;;10.65;10.27;;;25.10;99.90;;;;;;5032590;28;20212;-67
2023/07/13 08:28:33;;;;;;;10.88;10.48;;;25.00;99.90;;;;;;5032716;28;20218;-72
2023/07/13 08:31:03;;;;;;;10.25;9.93;;;24.90;99.90;;;;;;5031761;28;20232;-65
2023/07/13 08:33:30;;;;;;;10.73;10.32;;;25.00;99.90;;;;;;5032439;28;20200;-65
2023/07/13 08:35:57;;;;;;;11.13;10.73;;;25.20;99.90;;;;;;5032517;28;20207;-66
2023/07/13 08:38:24;;;;;;;14.13;13.63;;;25.50;99.90;;;;;;5032241;28;20208;-65
2023/07/13 08:40:54;;;;;;;12.68;12.27;;;25.60;99.90;;;;;;5031762;28;20220;-66
2023/07/13 08:43:27;;;;;;;15.30;14.77;;;25.80;99.90;;;;;;5032428;28;20200;-65
2023/07/13 08:45:56;;;;;;;18.20;17.55;;;25.90;99.90;;;;;;5034002;28;20592;-65
2023/07/13 08:48:29;;;;;;;20.92;20.20;;;25.60;99.90;;;;;;5032309;28;20212;-67
2023/07/13 08:50:59;;;;;;;23.20;22.40;;;25.70;99.90;;;;;;5031178;28;20232;-64
2023/07/13 08:53:35;;;;;;;18.55;17.92;;;26.00;99.90;;;;;;5033144;28;20214;-65
2023/07/13 08:56:03;;;;;;;18.52;17.83;;;25.90;99.90;;;;;;5033628;28;20207;-66
2023/07/13 08:58:31;;;;;;;20.52;19.83;;;26.00;99.90;;;;;;5036159;28;20215;-67
2023/07/13 09:01:03;;;;;;;21.95;21.17;;;26.10;99.90;;;;;;5039816;28;20285;-66
2023/07/13 09:03:41;;;;;;;18.65;17.98;;;26.30;99.90;;;;;;5031688;28;20232;-65
2023/07/13 09:06:12;;;;;;;17.67;17.08;;;26.20;99.90;;;;;;5031227;28;20633;-66
2023/07/13 09:08:52;;;;;;;21.40;20.65;;;26.40;99.90;;;;;;5030656;28;20215;-66
2023/07/13 09:11:33;;;;;;;21.27;20.50;;;26.40;99.90;;;;;;5030375;28;20227;-66
2023/07/13 09:14:14;;;;;;;64.07;61.25;;;26.60;99.90;;;;;;5031590;28;20199;-66
2023/07/13 09:16:43;;;;;;;22.90;22.10;;;26.70;99.90;;;;;;5034013;28;20803;-64
2023/07/13 09:19:17;;;;;;;33.75;32.45;;;26.40;99.90;;;;;;5034849;28;20219;-68
2023/07/13 09:21:46;;;;;;;20.13;19.38;;;26.20;99.90;;;;;;5031201;28;20235;-67
2023/07/13 09:24:30;;;;;;;21.80;21.05;;;26.20;99.90;;;;;;5030482;28;20205;-65
2023/07/13 09:26:58;;;;;;;19.13;18.40;;;26.40;99.90;;;;;;5030568;28;20211;-65
2023/07/13 09:29:34;;;;;;;17.40;16.80;;;26.40;99.90;;;;;;5029034;28;20211;-67
2023/07/13 09:32:05;;;;;;;17.60;17.00;;;26.30;99.90;;;;;;5030049;28;20224;-65
2023/07/13 09:34:34;;;;;;;19.73;19.02;;;26.50;99.90;;;;;;5030178;28;20230;-66
2023/07/13 09:37:01;;;;;;;20.88;20.08;;;26.70;99.90;;;;;;5030128;28;20210;-65
2023/07/13 09:39:32;;;;;;;31.15;30.00;;;26.90;99.90;;;;;;5029089;28;20750;-65
2023/07/13 09:42:07;;;;;;;25.80;23.42;;;27.10;99.90;;;;;;5029741;28;20260;-65
2023/07/13 09:44:36;;;;;;;66.10;63.13;;;27.00;99.90;;;;;;5029688;28;20238;-69
2023/07/13 09:47:04;;;;;;;21.65;20.85;;;26.90;99.90;;;;;;5030199;28;20749;-66
2023/07/13 09:49:36;;;;;;;18.90;18.27;;;26.80;99.90;;;;;;5029080;28;20232;-68
2023/07/13 09:52:05;;;;;;;18.65;17.95;;;26.80;99.90;;;;;;5028616;28;20228;-65
2023/07/13 09:54:35;;;;;;;19.90;19.20;;;27.00;99.90;;;;;;5030640;28;20207;-70
2023/07/13 09:57:05;;;;;;;20.58;19.85;;;27.20;99.90;;;;;;5031292;28;20209;-64
2023/07/13 09:59:34;;;;;;;18.80;18.05;;;27.30;99.90;;;;;;5030912;28;20299;-67
2023/07/13 10:02:02;;;;;;;21.92;21.13;;;27.60;99.90;;;;;;5031047;28;20235;-68
2023/07/13 10:04:31;;;;;;;22.00;21.23;;;27.80;99.90;;;;;;5031685;28;20216;-69
2023/07/13 10:07:08;;;;;;;22.52;21.70;;;27.80;99.90;;;;;;5031255;28;20200;-65
2023/07/13 10:09:35;;;;;;;22.13;21.33;;;27.70;99.90;;;;;;5030456;28;20219;-69
2023/07/13 10:12:02;;;;;;;26.75;25.85;;;27.50;99.90;;;;;;5031319;28;20239;-65
2023/07/13 10:14:30;;;;;;;30.17;29.10;;;27.70;99.90;;;;;;5032808;28;20809;-64
2023/07/13 10:17:02;;;;;;;33.00;31.80;;;27.80;99.90;;;;;;5031225;28;20208;-66
2023/07/13 10:19:33;;;;;;;29.60;28.60;;;28.10;99.90;;;;;;5033296;28;20197;-64
2023/07/13 10:22:03;;;;;;;28.00;27.00;;;28.20;99.90;;;;;;5032288;28;20236;-64
2023/07/13 10:24:34;;;;;;;20.33;19.63;;;27.80;99.90;;;;;;5031949;28;20209;-64
2023/07/13 10:27:07;;;;;;;21.20;20.50;;;27.60;99.90;;;;;;5036060;28;20204;-64
2023/07/13 10:29:38;;;;;;;20.83;20.02;;;27.40;99.90;;;;;;5040077;28;20205;-68
2023/07/13 10:32:11;;;;;;;21.42;20.73;;;27.60;99.90;;;;;;5033469;28;20228;-66
2023/07/13 10:34:39;;;;;;;20.20;19.50;;;27.40;99.90;;;;;;5053519;28;20224;-71
2023/07/13 10:37:08;;;;;;;19.30;18.60;;;27.10;99.90;;;;;;5038775;28;20268;-64
2023/07/13 10:39:37;;;;;;;18.23;17.58;;;26.90;99.90;;;;;;5033735;28;20254;-65
2023/07/13 10:42:12;;;;;;;25.27;24.38;;;26.80;99.90;;;;;;5035355;28;20221;-66
2023/07/13 10:44:39;;;;;;;28.35;27.35;;;27.20;99.90;;;;;;5035073;28;20208;-66
2023/07/13 10:47:13;;;;;;;22.73;21.92;;;27.40;99.90;;;;;;5035317;28;20296;-68
2023/07/13 10:49:41;;;;;;;25.35;24.45;;;27.50;99.90;;;;;;5033044;28;20612;-66
2023/07/13 10:52:46;;;;;;;19.88;19.17;;;27.40;99.90;;;;;;5016263;28;20229;-71
2023/07/13 10:55:35;;;;;;;20.38;19.67;;;27.20;99.90;;;;;;5011515;28;20618;-68
2023/07/13 10:58:04;;;;;;;51.50;49.50;;;27.00;99.90;;;;;;5011870;28;20501;-65
2023/07/13 11:00:43;;;;;;;25.80;24.90;;;27.10;99.90;;;;;;5011290;28;20316;-66
2023/07/13 11:03:15;;;;;;;24.23;23.35;;;27.20;99.90;;;;;;5011214;28;20213;-68
2023/07/13 11:05:42;;;;;;;43.50;41.85;;;27.50;99.90;;;;;;5010730;28;20213;-69
2023/07/13 11:08:20;;;;;;;97.10;91.78;;;27.60;99.90;;;;;;5011423;28;20698;-68
2023/07/13 11:10:51;;;;;;;35.42;34.13;;;27.50;99.90;;;;;;4996216;28;20225;-66
2023/07/13 11:13:52;;;;;;;28.27;27.27;;;27.00;99.90;;;;;;4991640;28;20236;-67
2023/07/13 11:16:46;;;;;;;28.80;27.77;;;26.90;99.90;;;;;;4989001;28;20214;-68
2023/07/13 11:19:37;;;;;;;32.88;31.67;;;27.20;99.90;;;;;;4991762;28;20213;-65
2023/07/13 11:22:16;;;;;;;25.45;24.55;;;27.50;99.90;;;;;;5012620;28;20642;-67
2023/07/13 11:25:00;;;;;;;27.35;26.35;;;27.40;99.90;;;;;;5013060;28;20231;-69
2023/07/13 11:27:42;;;;;;;24.23;23.27;;;27.00;99.90;;;;;;5014300;28;20215;-68
2023/07/13 11:30:35;;;;;;;21.30;20.50;;;27.40;99.90;;;;;;5013232;28;20213;-68
2023/07/13 11:33:14;;;;;;;60.75;57.75;;;27.20;99.90;;;;;;5012394;28;20324;-64
2023/07/13 11:35:47;;;;;;;20.75;20.05;;;27.10;99.90;;;;;;5014668;28;20209;-66
2023/07/13 11:38:18;;;;;;;75.45;72.55;;;26.90;99.90;;;;;;5013915;28;20213;-67
2023/07/13 11:40:46;;;;;;;40.08;38.58;;;27.10;99.90;;;;;;5012661;28;20233;-66
2023/07/13 11:43:17;;;;;;;31.63;30.48;;;26.80;99.90;;;;;;5012807;28;20205;-64
2023/07/13 11:45:45;;;;;;;22.10;21.33;;;27.00;99.90;;;;;;5013447;28;20209;-70
2023/07/13 11:48:22;;;;;;;23.70;22.90;;;27.00;99.90;;;;;;5021724;28;20293;-70
2023/07/13 11:50:56;;;;;;;21.98;21.17;;;27.10;99.90;;;;;;5021266;28;20233;-65
2023/07/13 11:53:24;;;;;;;38.85;37.42;;;27.30;99.90;;;;;;5014004;28;20363;-65
2023/07/13 11:55:52;;;;;;;25.05;24.15;;;27.50;99.90;;;;;;5013084;28;20215;-64
2023/07/13 11:58:24;;;;;;;24.48;23.60;;;27.60;99.90;;;;;;5012644;28;20209;-66
2023/07/13 12:00:54;;;;;;;24.63;23.73;;;27.40;99.90;;;;;;5011617;28;20259;-66
2023/07/13 12:03:24;;;;;;;25.98;25.08;;;27.50;99.90;;;;;;5012033;28;20237;-66
2023/07/13 12:05:59;;;;;;;38.92;37.47;;;27.60;99.90;;;;;;5015235;28;20245;-69
2023/07/13 12:08:25;;;;;;;50.22;48.20;;;27.90;99.90;;;;;;5024269;28;20216;-66
2023/07/13 12:11:04;;;;;;;33.28;32.05;;;28.10;99.90;;;;;;5013832;28;20237;-70
2023/07/13 12:13:37;;;;;;;27.02;26.05;;;28.00;99.90;;;;;;5013636;28;20205;-68
2023/07/13 12:16:11;;;;;;;23.45;22.63;;;28.10;99.90;;;;;;5012816;28;20209;-66
2023/07/13 12:18:39;;;;;;;27.38;26.38;;;28.20;99.90;;;;;;5012399;28;20219;-65
2023/07/13 12:21:12;;;;;;;37.78;36.35;;;28.40;99.90;;;;;;5011851;28;20322;-65
2023/07/13 12:23:39;;;;;;;27.10;26.10;;;28.30;99.90;;;;;;4988721;23;20296;-65
2023/07/13 12:26:09;;;;;;;25.25;24.35;;;28.10;99.90;;;;;;4986646;28;20648;-65
2023/07/13 12:28:39;;;;;;;36.35;35.05;;;27.90;99.90;;;;;;4991347;28;20228;-64
2023/07/13 12:31:07;;;;;;;24.42;23.55;;;27.80;99.90;;;;;;4990946;28;20210;-64
2023/07/13 12:33:37;;;;;;;25.95;24.95;;;27.70;99.90;;;;;;4992097;28;20323;-66
2023/07/13 12:36:07;;;;;;;26.55;25.55;;;27.80;99.90;;;;;;4991967;28;20564;-64
2023/07/13 12:38:34;;;;;;;27.23;26.25;;;28.00;99.90;;;;;;4986890;28;20222;-69
2023/07/13 12:41:03;;;;;;;36.85;35.40;;;28.20;99.90;;;;;;4974861;28;20232;-64
2023/07/13 12:43:36;;;;;;;25.25;24.35;;;28.10;99.90;;;;;;4975585;28;20254;-64
2023/07/13 12:46:16;;;;;;;60.65;58.08;;;27.80;99.90;;;;;;4972587;28;20218;-65
2023/07/13 12:48:45;;;;;;;181.75;169.73;;;27.70;99.90;;;;;;4978373;28;20206;-64
2023/07/13 12:51:13;;;;;;;51.72;48.83;;;27.60;99.90;;;;;;4975635;28;20207;-68